Time;durP1;ratioP1;P1;durP2;ratioP2;P2;SDS_P1;SDS_P2;PMS_P1;PMS_P2;Temp;Humidity;BMP_temperature;BMP_pressure;BME280_temperature;BME280_humidity;BME280_pressure;Samples;Min_cycle;Max_cycle;Signal;HPM_P1;HPM_P2
2022/12/23 00:02:12;;;;;;;20.77;13.70;;;8.90;99.90;;;;;;5032994;28;20436;-51
2022/12/23 00:04:38;;;;;;;20.17;13.87;;;8.60;99.90;;;;;;5033225;28;20427;-51
2022/12/23 00:07:05;;;;;;;15.97;12.77;;;8.80;99.90;;;;;;5033128;28;20431;-51
2022/12/23 00:09:31;;;;;;;18.63;13.30;;;8.90;99.90;;;;;;5032272;28;20487;-51
2022/12/23 00:17:27;;;;;;;19.73;14.80;;;9.20;99.90;;;;;;5025857;28;20439;-51
2022/12/23 00:19:53;;;;;;;24.90;14.57;;;8.60;99.90;;;;;;5032183;28;20459;-51
2022/12/23 00:23:03;;;;;;;18.33;13.80;;;8.70;99.90;;;;;;5015044;28;20444;-51
2022/12/23 00:25:07;;;;;;;20.93;15.73;;;9.20;99.90;;;;;;5032595;28;20447;-50
2022/12/23 00:27:34;;;;;;;23.20;15.93;;;8.80;99.90;;;;;;5032889;28;20415;-51
2022/12/23 00:30:00;;;;;;;20.57;15.10;;;9.20;99.90;;;;;;5031812;28;20481;-50
2022/12/23 00:32:28;;;;;;;20.40;14.70;;;8.70;99.90;;;;;;5014711;28;20941;-51
2022/12/23 00:34:55;;;;;;;23.13;15.70;;;8.60;99.90;;;;;;5032594;28;20442;-51
2022/12/23 00:37:21;;;;;;;22.73;15.23;;;9.40;99.90;;;;;;5032566;28;20438;-50
2022/12/23 00:45:17;;;;;;;21.13;15.33;;;9.30;99.90;;;;;;5032536;28;20561;-52
2022/12/23 00:50:30;;;;;;;19.30;14.50;;;9.40;99.90;;;;;;5031355;28;20540;-51
2022/12/23 00:52:58;;;;;;;20.90;16.67;;;9.00;99.90;;;;;;5014388;28;20794;-51
2022/12/23 00:55:24;;;;;;;19.30;13.90;;;8.80;99.90;;;;;;5032353;28;20899;-51
2022/12/23 00:57:51;;;;;;;20.50;15.50;;;8.70;99.90;;;;;;5032207;28;20440;-51
2022/12/23 01:00:19;;;;;;;21.90;16.07;;;8.80;99.90;;;;;;5013374;28;20498;-51
2022/12/23 01:05:37;;;;;;;21.00;14.37;;;9.20;99.90;;;;;;5031934;28;20450;-51
2022/12/23 01:08:04;;;;;;;22.17;15.33;;;9.00;99.90;;;;;;5032084;28;20439;-51
2022/12/23 01:10:31;;;;;;;22.23;14.53;;;9.30;99.90;;;;;;5031097;28;20490;-51
2022/12/23 01:12:57;;;;;;;19.30;14.60;;;8.80;99.90;;;;;;5031999;28;20431;-50
2022/12/23 01:15:24;;;;;;;22.77;16.43;;;9.10;99.90;;;;;;5032106;28;20447;-51
2022/12/23 01:17:52;;;;;;;23.17;16.77;;;8.70;99.90;;;;;;5031899;28;20435;-52
2022/12/23 01:20:19;;;;;;;23.50;16.57;;;8.80;99.90;;;;;;5031099;28;20451;-51
2022/12/23 01:22:46;;;;;;;22.27;15.20;;;9.20;99.90;;;;;;5031812;28;20440;-51
2022/12/23 01:25:13;;;;;;;22.93;16.37;;;8.80;99.90;;;;;;5031671;28;20941;-52
2022/12/23 01:27:39;;;;;;;19.17;13.97;;;8.90;99.90;;;;;;5013819;28;20448;-52
2022/12/23 01:30:07;;;;;;;20.20;14.37;;;8.90;99.90;;;;;;5030744;28;20878;-50
2022/12/23 01:32:34;;;;;;;18.87;14.20;;;8.80;99.90;;;;;;5031567;28;20438;-51
2022/12/23 01:35:02;;;;;;;20.30;14.77;;;8.80;99.90;;;;;;5031821;28;20434;-51
2022/12/23 01:37:28;;;;;;;24.03;17.23;;;8.70;99.90;;;;;;5031483;28;20432;-51
2022/12/23 01:39:55;;;;;;;21.53;14.90;;;8.70;99.90;;;;;;5030712;28;20774;-51
2022/12/23 01:45:11;;;;;;;22.43;16.93;;;8.50;99.90;;;;;;5031829;28;20424;-52
2022/12/23 01:47:42;;;;;;;22.63;15.70;;;8.80;99.90;;;;;;5031841;28;20432;-51
2022/12/23 01:50:14;;;;;;;24.47;16.67;;;9.10;99.90;;;;;;5031041;28;20478;-52
2022/12/23 01:52:45;;;;;;;22.40;16.57;;;8.20;99.90;;;;;;5031643;28;20427;-50
2022/12/23 01:55:14;;;;;;;24.97;15.93;;;8.60;99.90;;;;;;5031502;28;20776;-51
2022/12/23 01:57:42;;;;;;;24.90;15.90;;;9.20;99.90;;;;;;5031202;28;20493;-50
2022/12/23 02:05:44;;;;;;;23.60;16.07;;;8.90;99.90;;;;;;5035457;28;20413;-51
2022/12/23 02:11:18;;;;;;;23.33;16.67;;;9.30;99.90;;;;;;5035234;28;20489;-51
2022/12/23 02:16:47;;;;;;;24.20;17.07;;;8.90;99.90;;;;;;5035161;28;20913;-50
2022/12/23 02:19:22;;;;;;;21.00;15.93;;;8.90;99.90;;;;;;5034367;28;20447;-50
2022/12/23 02:22:16;;;;;;;23.10;16.17;;;8.80;99.90;;;;;;5035097;28;20417;-51
2022/12/23 02:25:23;;;;;;;21.00;16.37;;;8.70;99.90;;;;;;5035143;28;20904;-50
2022/12/23 02:28:00;;;;;;;27.50;17.80;;;9.00;99.90;;;;;;5035121;28;20443;-51
2022/12/23 02:30:42;;;;;;;25.33;16.00;;;8.90;99.90;;;;;;5034307;28;20498;-50
2022/12/23 02:33:32;;;;;;;28.27;18.23;;;8.70;99.90;;;;;;5034900;28;20427;-50
2022/12/23 02:36:21;;;;;;;23.83;17.00;;;8.80;99.90;;;;;;5035169;28;20443;-50
2022/12/23 02:38:59;;;;;;;24.23;16.20;;;8.90;99.90;;;;;;5034038;28;20435;-50
2022/12/23 02:41:32;;;;;;;20.70;14.47;;;9.00;99.90;;;;;;5034641;28;20427;-51
2022/12/23 02:44:03;;;;;;;23.80;17.23;;;8.90;99.90;;;;;;5034662;28;20488;-50
2022/12/23 02:46:36;;;;;;;23.57;17.50;;;8.60;99.90;;;;;;5034671;28;20422;-51
2022/12/23 02:49:07;;;;;;;25.10;17.40;;;8.70;99.90;;;;;;5033733;28;20972;-51
2022/12/23 02:51:39;;;;;;;27.90;17.53;;;8.90;99.90;;;;;;5034476;28;20479;-49
2022/12/23 02:54:10;;;;;;;25.90;17.10;;;8.50;99.90;;;;;;5034586;28;20435;-49
2022/12/23 02:56:41;;;;;;;28.03;17.90;;;8.90;99.90;;;;;;5034591;28;20432;-50
2022/12/23 02:59:12;;;;;;;24.00;16.37;;;9.00;99.90;;;;;;5033790;28;20449;-50
2022/12/23 03:01:42;;;;;;;26.23;17.97;;;8.80;99.90;;;;;;5034380;28;20424;-51
2022/12/23 03:04:09;;;;;;;26.53;17.80;;;8.90;99.90;;;;;;5034283;28;20438;-51
2022/12/23 03:06:39;;;;;;;26.10;17.40;;;8.50;99.90;;;;;;5034123;28;20912;-50
2022/12/23 03:09:07;;;;;;;28.43;17.33;;;9.30;99.90;;;;;;5033439;28;20963;-50
2022/12/23 03:11:45;;;;;;;25.13;16.93;;;8.60;99.90;;;;;;5033487;28;20479;-50
2022/12/23 03:14:29;;;;;;;22.83;16.93;;;9.30;99.90;;;;;;5034445;28;20442;-51
2022/12/23 03:17:08;;;;;;;27.83;18.57;;;9.10;99.90;;;;;;5034027;28;20966;-51
2022/12/23 03:19:41;;;;;;;25.57;18.60;;;9.20;99.90;;;;;;5033485;28;20982;-51
2022/12/23 03:22:19;;;;;;;29.17;18.87;;;9.00;99.90;;;;;;5034228;28;20761;-51
2022/12/23 03:24:55;;;;;;;29.87;19.63;;;9.20;99.90;;;;;;5033862;28;20431;-50
2022/12/23 03:27:26;;;;;;;26.07;18.20;;;8.50;99.90;;;;;;5033909;28;20857;-50
2022/12/23 03:29:57;;;;;;;28.43;17.07;;;9.00;99.90;;;;;;5015394;28;20890;-51
2022/12/23 03:32:28;;;;;;;29.73;18.87;;;9.10;99.90;;;;;;5033678;28;20511;-51
2022/12/23 03:34:58;;;;;;;23.13;16.50;;;9.00;99.90;;;;;;5034153;28;20435;-50
2022/12/23 03:37:28;;;;;;;29.27;18.87;;;9.10;99.90;;;;;;5033691;28;20432;-50
2022/12/23 03:40:01;;;;;;;21.77;16.37;;;8.90;99.90;;;;;;5033265;28;20776;-50
2022/12/23 03:42:33;;;;;;;22.13;16.30;;;8.80;99.90;;;;;;5015881;28;20443;-51
2022/12/23 03:45:03;;;;;;;27.73;17.97;;;9.10;99.90;;;;;;5033540;28;20440;-51
2022/12/23 03:47:35;;;;;;;24.60;16.63;;;8.50;99.90;;;;;;5033532;28;20398;-51
2022/12/23 03:50:07;;;;;;;27.00;18.63;;;9.20;99.90;;;;;;5032640;28;20481;-50
2022/12/23 03:52:38;;;;;;;26.80;17.97;;;9.00;99.90;;;;;;5033479;28;20538;-50
2022/12/23 03:55:10;;;;;;;26.53;17.83;;;9.20;99.90;;;;;;5033365;28;20421;-50
2022/12/23 03:57:43;;;;;;;26.43;17.20;;;9.00;99.90;;;;;;5033275;28;20475;-51
2022/12/23 04:00:11;;;;;;;28.40;17.47;;;8.40;99.90;;;;;;5032369;28;20470;-50
2022/12/23 04:02:45;;;;;;;27.30;17.73;;;9.10;99.90;;;;;;5032917;28;20439;-51
2022/12/23 04:05:20;;;;;;;25.33;17.83;;;8.70;99.90;;;;;;5033426;28;20811;-51
2022/12/23 04:07:51;;;;;;;26.00;17.40;;;9.10;99.90;;;;;;5033144;28;20805;-51
2022/12/23 04:10:20;;;;;;;27.87;18.27;;;8.80;99.90;;;;;;5032283;28;20804;-51
2022/12/23 04:12:47;;;;;;;24.83;17.60;;;9.00;99.90;;;;;;5033067;28;20562;-50
2022/12/23 04:15:18;;;;;;;22.60;16.90;;;9.60;99.90;;;;;;5033206;28;20427;-50
2022/12/23 04:17:46;;;;;;;26.47;17.23;;;9.00;99.90;;;;;;5032909;28;20439;-50
2022/12/23 04:20:12;;;;;;;27.83;17.53;;;9.10;99.90;;;;;;5031975;28;20466;-51
2022/12/23 04:22:42;;;;;;;25.47;17.03;;;8.90;99.90;;;;;;5032924;28;20559;-52
2022/12/23 04:25:09;;;;;;;26.27;17.20;;;9.20;99.90;;;;;;5031938;28;20447;-51
2022/12/23 04:27:36;;;;;;;24.40;16.40;;;9.00;99.90;;;;;;5032769;28;20792;-51
2022/12/23 04:30:02;;;;;;;22.77;15.63;;;9.20;99.90;;;;;;5032109;28;20451;-51
2022/12/23 04:32:29;;;;;;;26.70;17.87;;;8.90;99.90;;;;;;5015071;28;20443;-51
2022/12/23 04:34:57;;;;;;;30.27;18.07;;;9.50;99.90;;;;;;5032463;28;20439;-51
2022/12/23 04:37:24;;;;;;;26.13;18.20;;;9.20;99.90;;;;;;5032722;28;20464;-50
2022/12/23 04:39:51;;;;;;;26.80;17.83;;;9.30;99.90;;;;;;5013876;28;20467;-51
2022/12/23 04:42:17;;;;;;;25.70;16.00;;;8.90;99.90;;;;;;5032277;28;20546;-51
2022/12/23 04:44:44;;;;;;;29.33;18.63;;;8.80;99.90;;;;;;5032499;28;20443;-50
2022/12/23 04:47:10;;;;;;;26.20;17.73;;;9.10;99.90;;;;;;5032258;28;20443;-50
2022/12/23 04:49:37;;;;;;;27.40;18.07;;;9.20;99.90;;;;;;5031611;28;20455;-53
2022/12/23 04:52:05;;;;;;;24.73;17.53;;;9.10;99.90;;;;;;5032219;28;20479;-51
2022/12/23 04:54:32;;;;;;;24.80;17.67;;;9.10;99.90;;;;;;5032478;28;20865;-50
2022/12/23 04:56:58;;;;;;;30.03;19.67;;;8.60;99.90;;;;;;5032484;28;20436;-51
2022/12/23 04:59:25;;;;;;;25.10;17.77;;;8.70;99.90;;;;;;5013939;28;20479;-51
2022/12/23 05:01:52;;;;;;;26.93;18.73;;;9.10;99.90;;;;;;5032264;28;20423;-50
2022/12/23 05:04:18;;;;;;;25.77;18.40;;;8.80;99.90;;;;;;5032044;28;20428;-51
2022/12/23 05:06:45;;;;;;;29.83;17.93;;;9.60;99.90;;;;;;5031956;28;20418;-51
2022/12/23 05:09:12;;;;;;;26.43;17.60;;;9.20;99.90;;;;;;5031052;28;20466;-50
2022/12/23 05:11:39;;;;;;;30.27;19.77;;;9.30;99.90;;;;;;5014028;28;20454;-51
2022/12/23 05:14:06;;;;;;;32.97;19.83;;;9.10;99.90;;;;;;5032032;28;20804;-51
2022/12/23 05:16:32;;;;;;;26.53;16.63;;;8.80;99.90;;;;;;5031847;28;20443;-51
2022/12/23 05:18:59;;;;;;;28.47;18.40;;;9.10;99.90;;;;;;5031192;28;20462;-50
2022/12/23 05:21:25;;;;;;;29.73;18.43;;;9.40;99.90;;;;;;5031812;28;20439;-51
2022/12/23 05:23:52;;;;;;;33.40;19.30;;;9.60;99.90;;;;;;5031701;28;20459;-50
2022/12/23 05:26:20;;;;;;;29.43;17.80;;;9.10;99.90;;;;;;5031943;28;20431;-51
2022/12/23 05:28:47;;;;;;;32.27;18.73;;;9.00;99.90;;;;;;5030918;28;20431;-50
2022/12/23 05:31:15;;;;;;;34.73;19.40;;;8.90;99.90;;;;;;5031534;28;20483;-50
2022/12/23 05:33:42;;;;;;;28.47;18.90;;;9.40;99.90;;;;;;5031518;28;20936;-51
2022/12/23 05:36:09;;;;;;;31.73;20.97;;;9.60;99.90;;;;;;5031139;28;20440;-51
2022/12/23 05:38:36;;;;;;;31.60;20.23;;;9.00;99.90;;;;;;5031117;28;20435;-52
2022/12/23 05:41:03;;;;;;;27.37;18.23;;;9.10;99.90;;;;;;5031270;28;20442;-51
2022/12/23 05:43:31;;;;;;;28.43;19.00;;;9.20;99.90;;;;;;5031443;28;20452;-51
2022/12/23 05:45:59;;;;;;;27.00;17.90;;;9.30;99.90;;;;;;5031455;28;20777;-52
2022/12/23 05:48:25;;;;;;;29.40;18.20;;;9.60;99.90;;;;;;5030727;28;20447;-50
2022/12/23 05:50:53;;;;;;;32.50;19.40;;;9.10;99.90;;;;;;5013356;28;20475;-51
2022/12/23 05:53:20;;;;;;;25.60;18.10;;;9.10;99.90;;;;;;5031245;28;20450;-51
2022/12/23 05:55:46;;;;;;;32.20;18.30;;;9.10;99.90;;;;;;5031257;28;20425;-51
2022/12/23 05:58:13;;;;;;;33.37;19.93;;;9.60;99.90;;;;;;5031282;28;20436;-51
2022/12/23 06:00:41;;;;;;;34.57;18.90;;;9.60;99.90;;;;;;5054631;22;20481;-55
2022/12/23 06:03:08;;;;;;;30.30;18.53;;;9.00;99.90;;;;;;5031817;28;20985;-56
2022/12/23 06:05:36;;;;;;;30.63;18.50;;;8.90;99.90;;;;;;5031843;28;20435;-52
2022/12/23 06:08:03;;;;;;;32.37;17.53;;;8.70;99.90;;;;;;5032051;28;20501;-53
2022/12/23 06:10:29;;;;;;;30.00;19.13;;;9.70;99.90;;;;;;5031040;28;20852;-54
2022/12/23 06:12:56;;;;;;;38.50;18.40;;;9.20;99.90;;;;;;5031798;28;20431;-56
2022/12/23 06:15:23;;;;;;;35.00;19.57;;;9.20;99.90;;;;;;5031693;28;20436;-54
2022/12/23 06:17:50;;;;;;;34.00;21.17;;;9.00;99.90;;;;;;5031637;28;20442;-56
2022/12/23 06:20:17;;;;;;;36.13;19.07;;;9.00;99.90;;;;;;5030834;28;21011;-55
2022/12/23 06:22:44;;;;;;;28.67;16.93;;;9.00;99.90;;;;;;5031508;28;20784;-53
2022/12/23 06:25:10;;;;;;;34.80;18.03;;;9.00;99.90;;;;;;5031786;28;20414;-55
2022/12/23 06:27:37;;;;;;;38.63;19.23;;;8.80;99.90;;;;;;5031812;28;20438;-56
2022/12/23 06:30:04;;;;;;;40.43;22.50;;;8.70;99.90;;;;;;5031043;28;20460;-55
2022/12/23 06:32:31;;;;;;;34.93;18.20;;;9.20;99.90;;;;;;5031567;28;20475;-55
2022/12/23 06:34:59;;;;;;;32.30;19.63;;;9.10;99.90;;;;;;5031477;28;20431;-56
2022/12/23 06:37:25;;;;;;;35.50;18.73;;;8.70;99.90;;;;;;5031610;28;20438;-55
2022/12/23 06:39:52;;;;;;;31.80;19.40;;;9.20;99.90;;;;;;5030841;28;20455;-55
2022/12/23 06:42:19;;;;;;;36.07;19.60;;;9.20;99.90;;;;;;5031406;28;20414;-55
2022/12/23 06:44:45;;;;;;;40.90;20.90;;;9.50;99.90;;;;;;5031386;28;20798;-55
2022/12/23 06:47:12;;;;;;;37.93;18.60;;;8.90;99.90;;;;;;5032128;28;20402;-55
2022/12/23 06:49:38;;;;;;;34.70;18.90;;;8.60;99.90;;;;;;5034288;28;20436;-53
2022/12/23 06:52:06;;;;;;;36.53;19.10;;;8.60;99.90;;;;;;5034966;28;20482;-55
2022/12/23 06:54:33;;;;;;;30.00;17.77;;;9.00;99.90;;;;;;5033665;28;20441;-55
2022/12/23 06:57:00;;;;;;;36.50;19.90;;;9.10;99.90;;;;;;5034925;28;20446;-55
2022/12/23 06:59:27;;;;;;;38.63;19.73;;;8.80;99.90;;;;;;5034036;28;20438;-56
2022/12/23 07:01:54;;;;;;;28.93;17.20;;;9.00;99.90;;;;;;5034820;28;20493;-56
2022/12/23 07:04:20;;;;;;;33.83;19.67;;;9.00;99.90;;;;;;5033598;28;20766;-55
2022/12/23 07:06:47;;;;;;;29.23;17.50;;;9.10;99.90;;;;;;5034937;28;20824;-55
2022/12/23 07:09:15;;;;;;;27.87;17.10;;;9.10;99.90;;;;;;5034052;28;20402;-54
2022/12/23 07:11:41;;;;;;;34.10;18.97;;;8.50;99.90;;;;;;5033269;28;20876;-53
2022/12/23 07:14:08;;;;;;;29.90;17.33;;;9.00;99.90;;;;;;5034610;28;20439;-56
2022/12/23 07:16:35;;;;;;;32.20;18.87;;;9.00;99.90;;;;;;5034363;28;20406;-56
2022/12/23 07:19:01;;;;;;;25.00;16.43;;;9.30;99.90;;;;;;5033652;28;20432;-54
2022/12/23 07:21:28;;;;;;;37.30;18.37;;;9.60;99.90;;;;;;5034300;28;20410;-56
2022/12/23 07:23:54;;;;;;;32.43;17.97;;;9.60;99.90;;;;;;5034398;28;20443;-56
2022/12/23 07:26:22;;;;;;;33.50;17.73;;;8.80;99.90;;;;;;5034394;28;20435;-56
2022/12/23 07:28:49;;;;;;;31.53;17.67;;;8.70;99.90;;;;;;5033641;28;20406;-55
2022/12/23 07:31:16;;;;;;;25.07;16.30;;;8.90;99.90;;;;;;5034295;28;20561;-53
2022/12/23 07:33:43;;;;;;;28.13;15.83;;;9.30;99.90;;;;;;5034510;28;20442;-55
2022/12/23 07:36:09;;;;;;;23.73;15.43;;;9.20;99.90;;;;;;5034263;28;20509;-55
2022/12/23 07:38:36;;;;;;;23.47;15.10;;;9.20;99.90;;;;;;5033261;28;20431;-54
2022/12/23 07:41:03;;;;;;;24.00;14.40;;;8.70;99.90;;;;;;5034093;28;20532;-54
2022/12/23 07:43:31;;;;;;;30.27;16.13;;;9.30;99.90;;;;;;5033898;28;20459;-54
2022/12/23 07:45:57;;;;;;;25.33;14.50;;;9.20;99.90;;;;;;5032694;28;20455;-54
2022/12/23 07:48:24;;;;;;;24.07;13.53;;;9.30;99.90;;;;;;5033685;28;20407;-52
2022/12/23 07:50:51;;;;;;;27.10;14.23;;;8.60;99.90;;;;;;5033716;28;20525;-54
2022/12/23 07:53:18;;;;;;;22.07;12.80;;;9.30;99.90;;;;;;5032522;28;20497;-55
2022/12/23 07:55:44;;;;;;;25.50;15.43;;;9.40;99.90;;;;;;5033884;28;20846;-52
2022/12/23 07:58:11;;;;;;;26.60;15.13;;;9.30;99.90;;;;;;5034130;28;20864;-55
2022/12/23 08:00:38;;;;;;;26.07;13.30;;;9.70;99.90;;;;;;5033117;28;20449;-55
2022/12/23 08:03:05;;;;;;;27.03;13.97;;;9.10;99.90;;;;;;5033735;28;20406;-54
2022/12/23 08:05:32;;;;;;;24.17;14.97;;;8.70;99.90;;;;;;5033546;28;20440;-54
2022/12/23 08:07:58;;;;;;;27.87;14.27;;;9.20;99.90;;;;;;5033728;28;20417;-53
2022/12/23 08:10:25;;;;;;;22.50;11.80;;;9.80;99.90;;;;;;5032502;28;20467;-53
2022/12/23 08:12:51;;;;;;;24.23;13.10;;;9.20;99.90;;;;;;5033518;28;20479;-54
2022/12/23 08:15:18;;;;;;;26.80;14.00;;;9.20;99.90;;;;;;5033398;28;20428;-55
2022/12/23 08:17:46;;;;;;;25.83;13.27;;;9.00;99.90;;;;;;5033378;28;20917;-53
2022/12/23 08:20:13;;;;;;;26.57;13.90;;;9.10;99.90;;;;;;5032559;28;20479;-54
2022/12/23 08:22:39;;;;;;;27.10;13.40;;;9.20;99.90;;;;;;5033089;28;20436;-54
2022/12/23 08:25:06;;;;;;;29.37;14.97;;;9.30;99.90;;;;;;5033094;28;20440;-55
2022/12/23 08:27:34;;;;;;;31.60;15.23;;;9.50;99.90;;;;;;5033169;28;20446;-54
2022/12/23 08:30:01;;;;;;;31.30;15.10;;;8.80;99.90;;;;;;5032341;28;20887;-53
2022/12/23 08:32:28;;;;;;;28.40;16.23;;;9.30;99.90;;;;;;5033061;28;20483;-56
2022/12/23 08:34:57;;;;;;;24.33;13.40;;;9.00;99.90;;;;;;5032971;28;20418;-54
2022/12/23 08:37:24;;;;;;;29.80;13.97;;;9.00;99.90;;;;;;5031658;28;20459;-52
2022/12/23 08:39:50;;;;;;;31.77;16.40;;;9.40;99.90;;;;;;5032080;28;20547;-54
2022/12/23 08:42:17;;;;;;;33.53;16.00;;;9.40;99.90;;;;;;5032847;28;20439;-55
2022/12/23 08:44:44;;;;;;;27.70;14.40;;;9.30;99.90;;;;;;5032866;28;20410;-55
2022/12/23 08:47:10;;;;;;;25.00;12.90;;;9.30;99.90;;;;;;5032627;28;20442;-54
2022/12/23 08:49:37;;;;;;;25.73;15.60;;;9.40;99.90;;;;;;5032007;28;20849;-54
2022/12/23 08:52:05;;;;;;;27.73;15.20;;;9.40;99.90;;;;;;5032427;28;20479;-53
2022/12/23 08:54:31;;;;;;;30.43;16.07;;;9.50;99.90;;;;;;5032718;28;20823;-55
2022/12/23 08:56:58;;;;;;;33.37;15.00;;;9.40;99.90;;;;;;5032570;28;20418;-54
2022/12/23 08:59:24;;;;;;;37.50;21.20;;;9.40;99.90;;;;;;5032100;28;20445;-54
2022/12/23 09:01:51;;;;;;;30.53;17.30;;;9.60;99.90;;;;;;5032303;28;20443;-55
2022/12/23 09:04:17;;;;;;;31.70;16.50;;;9.40;99.90;;;;;;5032378;28;20414;-55
2022/12/23 09:06:45;;;;;;;23.30;11.60;;;9.30;99.90;;;;;;5032285;28;20436;-54
2022/12/23 09:09:14;;;;;;;23.33;13.00;;;10.00;99.90;;;;;;5031362;28;20985;-55
2022/12/23 09:11:41;;;;;;;26.87;13.77;;;9.90;99.90;;;;;;5031921;28;20485;-54
2022/12/23 09:14:09;;;;;;;28.63;12.87;;;9.70;99.90;;;;;;5032398;28;20900;-55
2022/12/23 09:16:36;;;;;;;27.40;12.10;;;9.40;99.90;;;;;;5032340;28;20959;-55
2022/12/23 09:19:03;;;;;;;22.27;12.10;;;9.50;99.90;;;;;;5031404;28;20436;-54
2022/12/23 09:21:29;;;;;;;21.10;10.60;;;9.80;99.90;;;;;;5032254;28;20509;-54
2022/12/23 09:23:56;;;;;;;17.47;9.97;;;9.60;99.90;;;;;;5032290;28;20427;-54
2022/12/23 09:26:26;;;;;;;17.43;10.00;;;9.50;99.90;;;;;;5030770;28;20451;-55
2022/12/23 09:28:53;;;;;;;18.13;10.03;;;9.00;99.90;;;;;;5031797;28;20458;-54
2022/12/23 09:31:21;;;;;;;21.00;10.77;;;9.60;99.90;;;;;;5031603;28;20422;-55
2022/12/23 09:33:48;;;;;;;16.80;10.40;;;10.10;99.90;;;;;;5031839;28;20511;-55
2022/12/23 09:36:15;;;;;;;16.77;10.47;;;9.50;99.90;;;;;;5031944;28;20428;-54
2022/12/23 09:38:42;;;;;;;16.43;10.23;;;9.60;99.90;;;;;;5031524;28;20964;-55
2022/12/23 09:41:21;;;;;;;18.90;9.70;;;10.20;99.90;;;;;;5031851;28;20441;-53
2022/12/23 09:43:59;;;;;;;15.87;8.90;;;8.90;99.90;;;;;;5032063;28;20402;-54
2022/12/23 09:46:28;;;;;;;19.40;10.80;;;9.70;99.90;;;;;;5031794;28;20427;-54
2022/12/23 09:49:00;;;;;;;15.63;9.87;;;9.30;99.90;;;;;;5031540;28;20459;-56
2022/12/23 09:51:28;;;;;;;17.07;9.93;;;9.50;99.90;;;;;;5031900;28;20413;-54
2022/12/23 09:54:03;;;;;;;22.03;9.70;;;9.60;99.90;;;;;;5031820;28;20438;-55
2022/12/23 09:56:37;;;;;;;18.13;10.17;;;9.70;99.90;;;;;;5031825;28;20441;-54
2022/12/23 09:59:16;;;;;;;20.33;11.83;;;9.40;99.90;;;;;;5031117;28;20921;-55
2022/12/23 10:01:50;;;;;;;20.50;10.90;;;10.10;99.90;;;;;;5031592;28;20439;-56
2022/12/23 10:04:32;;;;;;;21.43;10.90;;;9.40;99.90;;;;;;5031666;28;20938;-53
2022/12/23 10:07:14;;;;;;;20.37;10.53;;;9.10;99.90;;;;;;5031575;28;20405;-55
2022/12/23 10:09:43;;;;;;;18.07;10.10;;;9.10;99.90;;;;;;5030939;28;20430;-55
2022/12/23 10:12:17;;;;;;;19.90;12.17;;;9.60;99.90;;;;;;5031399;28;20806;-55
2022/12/23 10:14:48;;;;;;;20.63;11.60;;;9.50;99.90;;;;;;5030034;28;20433;-54
2022/12/23 10:17:25;;;;;;;20.40;11.83;;;9.50;99.90;;;;;;5031548;28;20412;-56
2022/12/23 10:19:57;;;;;;;21.10;10.50;;;9.30;99.90;;;;;;5029348;28;21055;-54
2022/12/23 10:22:26;;;;;;;19.93;10.50;;;9.60;99.90;;;;;;5034216;28;20428;-54
2022/12/23 10:24:57;;;;;;;22.17;11.10;;;9.60;99.90;;;;;;5035566;28;20501;-56
2022/12/23 10:27:29;;;;;;;21.43;11.37;;;9.40;99.90;;;;;;5033906;28;20807;-54
2022/12/23 10:30:00;;;;;;;18.07;10.63;;;9.60;99.90;;;;;;5034260;28;20463;-55
2022/12/23 10:32:38;;;;;;;17.10;10.33;;;9.30;99.90;;;;;;5034863;28;20490;-55
2022/12/23 10:35:14;;;;;;;21.77;10.60;;;9.10;99.90;;;;;;5035345;28;20787;-56
2022/12/23 10:37:47;;;;;;;17.83;9.77;;;9.70;99.90;;;;;;5034950;28;20442;-54
2022/12/23 10:40:21;;;;;;;17.73;10.80;;;9.70;99.90;;;;;;5034243;28;20432;-55
2022/12/23 10:43:00;;;;;;;14.77;9.83;;;10.30;99.90;;;;;;5035043;28;20416;-54
2022/12/23 10:45:47;;;;;;;16.70;10.67;;;9.80;99.90;;;;;;5035480;28;20443;-55
2022/12/23 10:48:29;;;;;;;16.90;12.00;;;9.80;99.90;;;;;;5034938;28;20418;-55
2022/12/23 10:51:00;;;;;;;18.77;11.80;;;10.30;99.90;;;;;;5035103;28;20455;-56
2022/12/23 10:53:34;;;;;;;18.17;10.73;;;9.80;99.90;;;;;;5034770;28;20488;-55
2022/12/23 10:56:02;;;;;;;18.10;11.27;;;9.90;99.90;;;;;;5033527;28;20450;-55
2022/12/23 10:58:30;;;;;;;21.10;12.10;;;10.10;99.90;;;;;;5034035;28;20463;-54
2022/12/23 11:01:02;;;;;;;17.77;10.90;;;10.00;99.90;;;;;;5034675;28;20474;-54
2022/12/23 11:03:31;;;;;;;17.87;11.30;;;10.50;99.90;;;;;;5034634;28;20432;-56
2022/12/23 11:05:59;;;;;;;15.47;10.50;;;10.10;99.90;;;;;;5034757;28;20410;-55
2022/12/23 11:08:28;;;;;;;18.33;10.23;;;9.50;99.90;;;;;;5032776;28;20461;-50
2022/12/23 11:10:56;;;;;;;17.77;10.47;;;10.30;99.90;;;;;;5034487;28;20455;-55
2022/12/23 11:13:34;;;;;;;16.03;10.90;;;9.90;99.90;;;;;;5034603;28;21010;-56
2022/12/23 11:16:14;;;;;;;21.57;12.10;;;9.90;99.90;;;;;;5034471;28;20435;-55
2022/12/23 11:18:56;;;;;;;23.50;13.57;;;10.00;99.90;;;;;;5033696;28;20963;-55
2022/12/23 11:21:23;;;;;;;14.17;9.57;;;9.70;99.90;;;;;;5034135;28;20823;-53
2022/12/23 11:24:13;;;;;;;20.00;12.40;;;9.70;99.90;;;;;;5034124;28;20807;-56
2022/12/23 11:26:40;;;;;;;17.60;9.87;;;9.90;99.90;;;;;;5033004;28;20538;-55
2022/12/23 11:29:11;;;;;;;19.13;13.00;;;10.00;99.90;;;;;;5033453;28;20439;-55
2022/12/23 11:31:42;;;;;;;16.23;9.80;;;9.50;99.90;;;;;;5034106;28;20438;-55
2022/12/23 11:34:16;;;;;;;14.00;9.90;;;9.50;99.90;;;;;;5032486;28;21001;-55
2022/12/23 11:36:43;;;;;;;17.10;10.50;;;9.80;99.90;;;;;;5034320;28;20936;-55
2022/12/23 11:39:21;;;;;;;19.37;11.90;;;9.30;99.90;;;;;;5033547;28;20435;-55
2022/12/23 11:41:50;;;;;;;16.80;10.63;;;9.50;99.90;;;;;;5034027;28;20427;-54
2022/12/23 11:44:22;;;;;;;16.10;9.60;;;9.80;99.90;;;;;;5033770;28;20436;-56
2022/12/23 11:46:50;;;;;;;17.80;10.73;;;10.00;99.90;;;;;;5033722;28;20444;-54
2022/12/23 11:49:20;;;;;;;16.17;11.10;;;9.80;99.90;;;;;;5032710;28;20467;-55
2022/12/23 11:51:58;;;;;;;14.13;11.07;;;10.00;99.90;;;;;;5034182;28;20772;-56
2022/12/23 11:54:25;;;;;;;15.63;11.13;;;9.60;99.90;;;;;;5033469;28;20483;-54
2022/12/23 11:56:53;;;;;;;15.93;11.60;;;9.90;99.90;;;;;;5033862;28;20436;-55
2022/12/23 11:59:28;;;;;;;17.23;12.40;;;9.90;99.90;;;;;;5058659;22;20972;-51
2022/12/23 12:01:59;;;;;;;16.83;12.40;;;10.20;99.90;;;;;;5031483;28;20944;-51
2022/12/23 12:04:28;;;;;;;20.40;14.10;;;9.90;99.90;;;;;;5032728;28;20760;-50
2022/12/23 12:06:55;;;;;;;19.50;14.00;;;9.90;99.90;;;;;;5033260;28;20443;-51
2022/12/23 12:09:22;;;;;;;19.07;12.63;;;10.00;99.90;;;;;;5032295;28;20444;-50
2022/12/23 12:11:53;;;;;;;16.57;12.50;;;9.90;99.90;;;;;;5033236;28;20427;-52
2022/12/23 12:14:22;;;;;;;18.87;13.27;;;9.80;99.90;;;;;;5032698;28;20473;-51
2022/12/23 12:16:55;;;;;;;21.67;14.87;;;10.00;99.90;;;;;;5032668;28;20431;-53
2022/12/23 12:19:27;;;;;;;17.50;12.63;;;9.90;99.90;;;;;;5031939;28;20451;-51
2022/12/23 12:21:58;;;;;;;20.83;14.27;;;10.00;99.90;;;;;;5032891;28;20439;-52
2022/12/23 12:24:29;;;;;;;19.33;13.90;;;9.90;99.90;;;;;;5032416;28;20410;-51
2022/12/23 12:27:01;;;;;;;20.00;13.40;;;10.00;99.90;;;;;;5032285;28;20442;-52
2022/12/23 12:29:35;;;;;;;17.90;13.07;;;9.80;99.90;;;;;;5031555;28;20425;-52
2022/12/23 12:32:05;;;;;;;17.47;13.57;;;10.50;99.90;;;;;;5032898;28;20768;-51
2022/12/23 12:34:42;;;;;;;18.77;12.73;;;10.10;99.90;;;;;;5032153;28;20826;-50
2022/12/23 12:37:19;;;;;;;18.13;11.93;;;10.20;99.90;;;;;;5031902;28;20435;-51
2022/12/23 12:39:52;;;;;;;16.90;12.90;;;10.10;99.90;;;;;;5031535;28;20464;-50
2022/12/23 12:42:25;;;;;;;17.90;13.10;;;10.40;99.90;;;;;;5031828;28;20881;-51
2022/12/23 12:45:02;;;;;;;22.40;14.20;;;10.80;99.90;;;;;;5031104;28;20408;-50
2022/12/23 12:47:35;;;;;;;17.50;13.60;;;10.50;99.90;;;;;;5032023;28;20406;-51
2022/12/23 12:50:11;;;;;;;16.07;12.47;;;10.20;99.90;;;;;;5031450;28;20456;-52
2022/12/23 12:52:41;;;;;;;22.80;15.37;;;10.30;99.90;;;;;;5032184;28;20435;-51
2022/12/23 12:55:16;;;;;;;18.80;13.87;;;10.40;99.90;;;;;;5031802;28;20876;-51
2022/12/23 12:57:43;;;;;;;19.73;12.53;;;10.70;99.90;;;;;;5031585;28;20439;-51
2022/12/23 13:00:15;;;;;;;17.33;12.57;;;10.30;99.90;;;;;;5031015;28;20591;-50
2022/12/23 13:03:00;;;;;;;17.33;12.33;;;10.20;99.90;;;;;;5032244;28;20483;-52
2022/12/23 13:05:45;;;;;;;13.50;11.23;;;10.10;99.90;;;;;;5031940;28;20427;-50
2022/12/23 13:08:26;;;;;;;18.53;13.03;;;10.40;99.90;;;;;;5031420;28;20556;-52
2022/12/23 13:10:59;;;;;;;15.60;11.40;;;10.30;99.90;;;;;;5031419;28;20456;-50
2022/12/23 13:13:41;;;;;;;17.27;11.93;;;10.20;99.90;;;;;;5031232;28;20472;-49
2022/12/23 13:16:21;;;;;;;13.90;10.80;;;10.10;99.90;;;;;;5031429;28;20471;-51
2022/12/23 13:18:57;;;;;;;12.90;10.30;;;10.40;99.90;;;;;;5030431;28;20436;-50
2022/12/23 13:21:31;;;;;;;13.20;10.50;;;10.70;99.90;;;;;;5031510;28;20434;-51